Terminal Aerodrome Forecast
Issued by NWS Jacksonville, FL

Home | Current Version | Previous Version | Text Only | Print | Product List | Glossary On
Versions: 1 2 3 4 5 6 7 8 9 10 11 12 13 14 15 16 17 18 19 20
859
FTUS42 KJAX 230226 AAA
TAFSSI
TAF AMD
KSSI 230226Z 2302/2324 16007KT 6SM BR VCSH BKN002 OVC012
     FM230500 16009KT 4SM -SHRA BR OVC015
      TEMPO 2305/2309 1SM TSRA BR BKN003 OVC009CB
     FM230900 18008KT 2SM -SHRA BR OVC003
      TEMPO 2309/2312 1SM TSRA BR OVC003CB
     FM231600 24008KT P6SM OVC007
     FM232000 26008KT P6SM OVC015=

USA.gov is the U.S. government's official web portal to all federal, state and local government web resources and services.